sensor_id;sensor_type;location;lat;lon;timestamp;temperature;humidity
4509;DHT22;2267;48.816;9.230;2024-03-02T00:01:06;9.10;99.90
4509;DHT22;2267;48.816;9.230;2024-03-02T00:03:34;9.10;99.90
4509;DHT22;2267;48.816;9.230;2024-03-02T00:06:01;9.10;99.90
4509;DHT22;2267;48.816;9.230;2024-03-02T00:08:28;9.10;99.90
4509;DHT22;2267;48.816;9.230;2024-03-02T00:10:59;9.10;99.90
4509;DHT22;2267;48.816;9.230;2024-03-02T00:13:27;9.10;99.90
4509;DHT22;2267;48.816;9.230;2024-03-02T00:15:55;9.10;99.90
4509;DHT22;2267;48.816;9.230;2024-03-02T00:18:34;9.10;99.90
4509;DHT22;2267;48.816;9.230;2024-03-02T00:21:02;9.10;99.90
4509;DHT22;2267;48.816;9.230;2024-03-02T00:23:30;9.10;99.90
4509;DHT22;2267;48.816;9.230;2024-03-02T00:25:58;9.10;99.90
4509;DHT22;2267;48.816;9.230;2024-03-02T00:28:31;9.10;99.90
4509;DHT22;2267;48.816;9.230;2024-03-02T00:31:11;9.10;99.90
4509;DHT22;2267;48.816;9.230;2024-03-02T00:33:46;9.10;99.90
4509;DHT22;2267;48.816;9.230;2024-03-02T00:36:21;9.10;99.90
4509;DHT22;2267;48.816;9.230;2024-03-02T00:38:51;9.10;99.90
4509;DHT22;2267;48.816;9.230;2024-03-02T00:41:27;9.10;99.90
4509;DHT22;2267;48.816;9.230;2024-03-02T00:46:26;9.00;99.90
4509;DHT22;2267;48.816;9.230;2024-03-02T00:48:58;9.00;99.90
4509;DHT22;2267;48.816;9.230;2024-03-02T00:51:27;9.00;99.90
4509;DHT22;2267;48.816;9.230;2024-03-02T00:53:55;9.00;99.90
4509;DHT22;2267;48.816;9.230;2024-03-02T00:56:24;9.00;99.90
4509;DHT22;2267;48.816;9.230;2024-03-02T00:58:51;9.00;99.90
4509;DHT22;2267;48.816;9.230;2024-03-02T01:01:19;9.00;99.90
4509;DHT22;2267;48.816;9.230;2024-03-02T01:03:46;9.00;99.90
4509;DHT22;2267;48.816;9.230;2024-03-02T01:06:14;9.00;99.90
4509;DHT22;2267;48.816;9.230;2024-03-02T01:08:41;9.00;99.90
4509;DHT22;2267;48.816;9.230;2024-03-02T01:11:08;8.90;99.90
4509;DHT22;2267;48.816;9.230;2024-03-02T01:13:35;8.90;99.90
4509;DHT22;2267;48.816;9.230;2024-03-02T01:16:02;8.90;99.90
4509;DHT22;2267;48.816;9.230;2024-03-02T01:18:30;8.90;99.90
4509;DHT22;2267;48.816;9.230;2024-03-02T01:20:57;8.90;99.90
4509;DHT22;2267;48.816;9.230;2024-03-02T01:23:25;8.90;99.90
4509;DHT22;2267;48.816;9.230;2024-03-02T01:25:52;8.90;99.90
4509;DHT22;2267;48.816;9.230;2024-03-02T01:28:19;8.90;99.90
4509;DHT22;2267;48.816;9.230;2024-03-02T01:30:47;8.90;99.90
4509;DHT22;2267;48.816;9.230;2024-03-02T01:33:16;8.90;99.90
4509;DHT22;2267;48.816;9.230;2024-03-02T01:35:43;8.80;99.90
4509;DHT22;2267;48.816;9.230;2024-03-02T01:38:10;8.80;99.90
4509;DHT22;2267;48.816;9.230;2024-03-02T01:40:38;8.80;99.90
4509;DHT22;2267;48.816;9.230;2024-03-02T01:43:07;8.80;99.90
4509;DHT22;2267;48.816;9.230;2024-03-02T01:45:35;8.70;99.90
4509;DHT22;2267;48.816;9.230;2024-03-02T01:48:07;8.70;99.90
4509;DHT22;2267;48.816;9.230;2024-03-02T01:50:34;8.70;99.90
4509;DHT22;2267;48.816;9.230;2024-03-02T01:53:02;8.70;99.90
4509;DHT22;2267;48.816;9.230;2024-03-02T01:55:31;8.60;99.90
4509;DHT22;2267;48.816;9.230;2024-03-02T01:58:00;8.60;99.90
4509;DHT22;2267;48.816;9.230;2024-03-02T02:00:27;8.60;99.90
4509;DHT22;2267;48.816;9.230;2024-03-02T02:02:54;8.60;99.90
4509;DHT22;2267;48.816;9.230;2024-03-02T02:05:21;8.50;99.90
4509;DHT22;2267;48.816;9.230;2024-03-02T02:07:48;8.50;99.90
4509;DHT22;2267;48.816;9.230;2024-03-02T02:10:16;8.50;99.90
4509;DHT22;2267;48.816;9.230;2024-03-02T02:12:43;8.50;99.90
4509;DHT22;2267;48.816;9.230;2024-03-02T02:15:29;8.50;99.90
4509;DHT22;2267;48.816;9.230;2024-03-02T02:17:57;8.40;99.90
4509;DHT22;2267;48.816;9.230;2024-03-02T02:20:25;8.40;99.90
4509;DHT22;2267;48.816;9.230;2024-03-02T02:25:22;8.40;99.90
4509;DHT22;2267;48.816;9.230;2024-03-02T02:27:50;8.40;99.90
4509;DHT22;2267;48.816;9.230;2024-03-02T02:30:25;8.40;99.90
4509;DHT22;2267;48.816;9.230;2024-03-02T02:32:53;8.30;99.90
4509;DHT22;2267;48.816;9.230;2024-03-02T02:35:20;8.30;99.90
4509;DHT22;2267;48.816;9.230;2024-03-02T02:37:47;8.30;99.90
4509;DHT22;2267;48.816;9.230;2024-03-02T02:40:15;8.20;99.90
4509;DHT22;2267;48.816;9.230;2024-03-02T02:42:42;8.30;99.90
4509;DHT22;2267;48.816;9.230;2024-03-02T02:45:09;8.30;99.90
4509;DHT22;2267;48.816;9.230;2024-03-02T02:47:37;8.20;99.90
4509;DHT22;2267;48.816;9.230;2024-03-02T02:50:07;8.20;99.90
4509;DHT22;2267;48.816;9.230;2024-03-02T02:52:35;8.20;99.90
4509;DHT22;2267;48.816;9.230;2024-03-02T02:55:04;8.20;99.90
4509;DHT22;2267;48.816;9.230;2024-03-02T02:57:34;8.20;99.90
4509;DHT22;2267;48.816;9.230;2024-03-02T03:00:09;8.20;99.90
4509;DHT22;2267;48.816;9.230;2024-03-02T03:02:46;8.20;99.90
4509;DHT22;2267;48.816;9.230;2024-03-02T03:05:15;8.20;99.90
4509;DHT22;2267;48.816;9.230;2024-03-02T03:07:43;8.20;99.90
4509;DHT22;2267;48.816;9.230;2024-03-02T03:10:11;8.20;99.90
4509;DHT22;2267;48.816;9.230;2024-03-02T03:12:38;8.20;99.90
4509;DHT22;2267;48.816;9.230;2024-03-02T03:15:08;8.20;99.90
4509;DHT22;2267;48.816;9.230;2024-03-02T03:17:35;8.10;99.90
4509;DHT22;2267;48.816;9.230;2024-03-02T03:20:04;8.10;99.90
4509;DHT22;2267;48.816;9.230;2024-03-02T03:22:32;8.00;99.90
4509;DHT22;2267;48.816;9.230;2024-03-02T03:24:59;8.00;99.90
4509;DHT22;2267;48.816;9.230;2024-03-02T03:27:26;8.00;99.90
4509;DHT22;2267;48.816;9.230;2024-03-02T03:29:53;8.00;99.90
4509;DHT22;2267;48.816;9.230;2024-03-02T03:32:21;7.90;99.90
4509;DHT22;2267;48.816;9.230;2024-03-02T03:34:48;7.90;99.90
4509;DHT22;2267;48.816;9.230;2024-03-02T03:37:15;7.90;99.90
4509;DHT22;2267;48.816;9.230;2024-03-02T03:39:43;7.80;99.90
4509;DHT22;2267;48.816;9.230;2024-03-02T03:42:10;7.80;99.90
4509;DHT22;2267;48.816;9.230;2024-03-02T03:44:37;7.80;99.90
4509;DHT22;2267;48.816;9.230;2024-03-02T03:47:06;7.80;99.90
4509;DHT22;2267;48.816;9.230;2024-03-02T03:49:33;7.70;99.90
4509;DHT22;2267;48.816;9.230;2024-03-02T03:51:59;7.70;99.90
4509;DHT22;2267;48.816;9.230;2024-03-02T03:54:27;7.70;99.90
4509;DHT22;2267;48.816;9.230;2024-03-02T03:56:53;7.70;99.90
4509;DHT22;2267;48.816;9.230;2024-03-02T03:59:20;7.60;99.90
4509;DHT22;2267;48.816;9.230;2024-03-02T04:01:47;7.60;99.90
4509;DHT22;2267;48.816;9.230;2024-03-02T04:04:14;7.60;99.90
4509;DHT22;2267;48.816;9.230;2024-03-02T04:06:41;7.60;99.90
4509;DHT22;2267;48.816;9.230;2024-03-02T04:09:08;7.60;99.90
4509;DHT22;2267;48.816;9.230;2024-03-02T04:11:35;7.50;99.90
4509;DHT22;2267;48.816;9.230;2024-03-02T04:14:01;7.50;99.90
4509;DHT22;2267;48.816;9.230;2024-03-02T04:16:28;7.50;99.90
4509;DHT22;2267;48.816;9.230;2024-03-02T04:18:55;7.40;99.90
4509;DHT22;2267;48.816;9.230;2024-03-02T04:21:22;7.40;99.90
4509;DHT22;2267;48.816;9.230;2024-03-02T04:23:49;7.40;99.90
4509;DHT22;2267;48.816;9.230;2024-03-02T04:26:15;7.40;99.90
4509;DHT22;2267;48.816;9.230;2024-03-02T04:28:47;7.30;99.90
4509;DHT22;2267;48.816;9.230;2024-03-02T04:31:15;7.30;99.90
4509;DHT22;2267;48.816;9.230;2024-03-02T04:33:42;7.30;99.90
4509;DHT22;2267;48.816;9.230;2024-03-02T04:36:09;7.30;99.90
4509;DHT22;2267;48.816;9.230;2024-03-02T04:38:39;7.30;99.90
4509;DHT22;2267;48.816;9.230;2024-03-02T04:41:06;7.30;99.90
4509;DHT22;2267;48.816;9.230;2024-03-02T04:43:33;7.30;99.90
4509;DHT22;2267;48.816;9.230;2024-03-02T04:46:00;7.30;99.90
4509;DHT22;2267;48.816;9.230;2024-03-02T04:48:27;7.30;99.90
4509;DHT22;2267;48.816;9.230;2024-03-02T04:50:54;7.30;99.90
4509;DHT22;2267;48.816;9.230;2024-03-02T04:53:21;7.30;99.90
4509;DHT22;2267;48.816;9.230;2024-03-02T04:55:48;7.30;99.90
4509;DHT22;2267;48.816;9.230;2024-03-02T04:58:20;7.20;99.90
4509;DHT22;2267;48.816;9.230;2024-03-02T05:00:47;7.20;99.90
4509;DHT22;2267;48.816;9.230;2024-03-02T05:03:14;7.20;99.90
4509;DHT22;2267;48.816;9.230;2024-03-02T05:05:41;7.10;99.90
4509;DHT22;2267;48.816;9.230;2024-03-02T05:08:08;7.10;99.90
4509;DHT22;2267;48.816;9.230;2024-03-02T05:10:35;7.10;99.90
4509;DHT22;2267;48.816;9.230;2024-03-02T05:13:03;7.10;99.90
4509;DHT22;2267;48.816;9.230;2024-03-02T05:15:30;7.10;99.90
4509;DHT22;2267;48.816;9.230;2024-03-02T05:17:57;7.10;99.90
4509;DHT22;2267;48.816;9.230;2024-03-02T05:20:26;7.10;99.90
4509;DHT22;2267;48.816;9.230;2024-03-02T05:22:52;7.10;99.90
4509;DHT22;2267;48.816;9.230;2024-03-02T05:25:19;7.10;99.90
4509;DHT22;2267;48.816;9.230;2024-03-02T05:27:46;7.10;99.90
4509;DHT22;2267;48.816;9.230;2024-03-02T05:30:13;7.20;99.90
4509;DHT22;2267;48.816;9.230;2024-03-02T05:32:44;7.20;99.90
4509;DHT22;2267;48.816;9.230;2024-03-02T05:35:11;7.20;99.90
4509;DHT22;2267;48.816;9.230;2024-03-02T05:37:39;7.20;99.90
4509;DHT22;2267;48.816;9.230;2024-03-02T05:40:06;7.20;99.90
4509;DHT22;2267;48.816;9.230;2024-03-02T05:42:34;7.20;99.90
4509;DHT22;2267;48.816;9.230;2024-03-02T05:45:01;7.20;99.90
4509;DHT22;2267;48.816;9.230;2024-03-02T05:47:28;7.20;99.90
4509;DHT22;2267;48.816;9.230;2024-03-02T05:49:55;7.20;99.90
4509;DHT22;2267;48.816;9.230;2024-03-02T05:52:22;7.20;99.90
4509;DHT22;2267;48.816;9.230;2024-03-02T05:54:49;7.20;99.90
4509;DHT22;2267;48.816;9.230;2024-03-02T05:57:16;7.20;99.90
4509;DHT22;2267;48.816;9.230;2024-03-02T05:59:44;7.10;99.90
4509;DHT22;2267;48.816;9.230;2024-03-02T06:02:11;7.10;99.90
4509;DHT22;2267;48.816;9.230;2024-03-02T06:04:38;7.10;99.90
4509;DHT22;2267;48.816;9.230;2024-03-02T06:07:04;7.10;99.90
4509;DHT22;2267;48.816;9.230;2024-03-02T06:09:32;7.10;99.90
4509;DHT22;2267;48.816;9.230;2024-03-02T06:11:59;7.10;99.90
4509;DHT22;2267;48.816;9.230;2024-03-02T06:14:26;7.10;99.90
4509;DHT22;2267;48.816;9.230;2024-03-02T06:16:52;7.10;99.90
4509;DHT22;2267;48.816;9.230;2024-03-02T06:19:19;7.10;99.90
4509;DHT22;2267;48.816;9.230;2024-03-02T06:21:46;7.10;99.90
4509;DHT22;2267;48.816;9.230;2024-03-02T06:24:13;7.10;99.90
4509;DHT22;2267;48.816;9.230;2024-03-02T06:26:40;7.10;99.90
4509;DHT22;2267;48.816;9.230;2024-03-02T06:29:06;7.10;99.90
4509;DHT22;2267;48.816;9.230;2024-03-02T06:31:34;7.10;99.90
4509;DHT22;2267;48.816;9.230;2024-03-02T06:34:01;7.10;99.90
4509;DHT22;2267;48.816;9.230;2024-03-02T06:36:30;7.10;99.90
4509;DHT22;2267;48.816;9.230;2024-03-02T06:38:57;7.10;99.90
4509;DHT22;2267;48.816;9.230;2024-03-02T06:41:24;7.20;99.90
4509;DHT22;2267;48.816;9.230;2024-03-02T06:43:50;7.20;99.90
4509;DHT22;2267;48.816;9.230;2024-03-02T06:46:26;7.20;99.90
4509;DHT22;2267;48.816;9.230;2024-03-02T06:48:52;7.20;99.90
4509;DHT22;2267;48.816;9.230;2024-03-02T06:51:19;7.20;99.90
4509;DHT22;2267;48.816;9.230;2024-03-02T06:53:46;7.30;99.90
4509;DHT22;2267;48.816;9.230;2024-03-02T06:56:14;7.30;99.90
4509;DHT22;2267;48.816;9.230;2024-03-02T06:58:41;7.30;99.90
4509;DHT22;2267;48.816;9.230;2024-03-02T07:01:09;7.30;99.90
4509;DHT22;2267;48.816;9.230;2024-03-02T07:03:36;7.30;99.90
4509;DHT22;2267;48.816;9.230;2024-03-02T07:06:03;7.30;99.90
4509;DHT22;2267;48.816;9.230;2024-03-02T07:08:31;7.30;99.90
4509;DHT22;2267;48.816;9.230;2024-03-02T07:10:58;7.30;99.90
4509;DHT22;2267;48.816;9.230;2024-03-02T07:13:24;7.40;99.90
4509;DHT22;2267;48.816;9.230;2024-03-02T07:15:51;7.40;99.90
4509;DHT22;2267;48.816;9.230;2024-03-02T07:18:30;7.50;99.90
4509;DHT22;2267;48.816;9.230;2024-03-02T07:20:58;7.50;99.90
4509;DHT22;2267;48.816;9.230;2024-03-02T07:23:26;7.60;99.90
4509;DHT22;2267;48.816;9.230;2024-03-02T07:25:54;7.60;99.90
4509;DHT22;2267;48.816;9.230;2024-03-02T07:28:26;7.70;99.90
4509;DHT22;2267;48.816;9.230;2024-03-02T07:31:04;7.70;99.90
4509;DHT22;2267;48.816;9.230;2024-03-02T07:33:31;7.80;99.90
4509;DHT22;2267;48.816;9.230;2024-03-02T07:35:59;7.80;99.90
4509;DHT22;2267;48.816;9.230;2024-03-02T07:38:31;7.90;99.90
4509;DHT22;2267;48.816;9.230;2024-03-02T07:40:58;7.90;99.90
4509;DHT22;2267;48.816;9.230;2024-03-02T07:43:25;7.90;99.90
4509;DHT22;2267;48.816;9.230;2024-03-02T07:45:52;8.00;99.90
4509;DHT22;2267;48.816;9.230;2024-03-02T07:48:19;8.00;99.90
4509;DHT22;2267;48.816;9.230;2024-03-02T07:50:48;8.00;99.90
4509;DHT22;2267;48.816;9.230;2024-03-02T07:53:15;8.00;99.90
4509;DHT22;2267;48.816;9.230;2024-03-02T07:55:42;8.00;99.90
4509;DHT22;2267;48.816;9.230;2024-03-02T07:58:09;8.00;99.90
4509;DHT22;2267;48.816;9.230;2024-03-02T08:00:36;8.00;99.90
4509;DHT22;2267;48.816;9.230;2024-03-02T08:03:03;8.00;99.90
4509;DHT22;2267;48.816;9.230;2024-03-02T08:05:30;8.00;99.90
4509;DHT22;2267;48.816;9.230;2024-03-02T08:07:57;8.00;99.90
4509;DHT22;2267;48.816;9.230;2024-03-02T08:10:24;8.10;99.90
4509;DHT22;2267;48.816;9.230;2024-03-02T08:12:50;8.10;99.90
4509;DHT22;2267;48.816;9.230;2024-03-02T08:15:18;8.10;99.90
4509;DHT22;2267;48.816;9.230;2024-03-02T08:17:44;8.10;99.90
4509;DHT22;2267;48.816;9.230;2024-03-02T08:20:15;8.10;99.90
4509;DHT22;2267;48.816;9.230;2024-03-02T08:22:42;8.20;99.90
4509;DHT22;2267;48.816;9.230;2024-03-02T08:25:09;8.20;99.90
4509;DHT22;2267;48.816;9.230;2024-03-02T08:27:37;8.20;99.90
4509;DHT22;2267;48.816;9.230;2024-03-02T08:30:05;8.30;99.90
4509;DHT22;2267;48.816;9.230;2024-03-02T08:32:34;8.30;99.90
4509;DHT22;2267;48.816;9.230;2024-03-02T08:35:01;8.40;99.90
4509;DHT22;2267;48.816;9.230;2024-03-02T08:37:28;8.40;99.90
4509;DHT22;2267;48.816;9.230;2024-03-02T08:39:55;8.50;99.90
4509;DHT22;2267;48.816;9.230;2024-03-02T08:42:22;8.50;99.90
4509;DHT22;2267;48.816;9.230;2024-03-02T08:44:49;8.60;99.90
4509;DHT22;2267;48.816;9.230;2024-03-02T08:47:17;8.60;99.90
4509;DHT22;2267;48.816;9.230;2024-03-02T08:49:43;8.70;99.90
4509;DHT22;2267;48.816;9.230;2024-03-02T08:52:10;8.70;99.90
4509;DHT22;2267;48.816;9.230;2024-03-02T08:54:37;8.80;99.90
4509;DHT22;2267;48.816;9.230;2024-03-02T08:57:05;8.90;99.90
4509;DHT22;2267;48.816;9.230;2024-03-02T08:59:32;8.90;99.90
4509;DHT22;2267;48.816;9.230;2024-03-02T09:01:59;9.20;99.90
4509;DHT22;2267;48.816;9.230;2024-03-02T09:04:27;9.40;99.90
4509;DHT22;2267;48.816;9.230;2024-03-02T09:06:58;9.50;99.90
4509;DHT22;2267;48.816;9.230;2024-03-02T09:09:25;9.50;99.90
4509;DHT22;2267;48.816;9.230;2024-03-02T09:11:52;9.50;99.90
4509;DHT22;2267;48.816;9.230;2024-03-02T09:14:22;9.60;99.90
4509;DHT22;2267;48.816;9.230;2024-03-02T09:16:49;9.70;99.90
4509;DHT22;2267;48.816;9.230;2024-03-02T09:19:16;9.70;99.90
4509;DHT22;2267;48.816;9.230;2024-03-02T09:21:43;9.80;99.90
4509;DHT22;2267;48.816;9.230;2024-03-02T09:24:10;9.90;99.90
4509;DHT22;2267;48.816;9.230;2024-03-02T09:26:40;9.90;99.90
4509;DHT22;2267;48.816;9.230;2024-03-02T09:29:06;10.00;99.90
4509;DHT22;2267;48.816;9.230;2024-03-02T09:31:42;10.10;99.90
4509;DHT22;2267;48.816;9.230;2024-03-02T09:34:09;10.20;99.90
4509;DHT22;2267;48.816;9.230;2024-03-02T09:36:36;10.30;99.90
4509;DHT22;2267;48.816;9.230;2024-03-02T09:39:03;10.40;99.90
4509;DHT22;2267;48.816;9.230;2024-03-02T09:41:32;10.50;99.90
4509;DHT22;2267;48.816;9.230;2024-03-02T09:44:00;10.50;99.90
4509;DHT22;2267;48.816;9.230;2024-03-02T09:46:27;10.60;99.90
4509;DHT22;2267;48.816;9.230;2024-03-02T09:48:54;10.70;99.90
4509;DHT22;2267;48.816;9.230;2024-03-02T09:51:21;10.80;99.90
4509;DHT22;2267;48.816;9.230;2024-03-02T09:53:49;10.90;99.90
4509;DHT22;2267;48.816;9.230;2024-03-02T09:56:16;11.00;99.90
4509;DHT22;2267;48.816;9.230;2024-03-02T09:58:45;11.10;99.90
4509;DHT22;2267;48.816;9.230;2024-03-02T10:01:12;11.20;99.90
4509;DHT22;2267;48.816;9.230;2024-03-02T10:03:39;11.40;99.90
4509;DHT22;2267;48.816;9.230;2024-03-02T10:06:28;11.50;99.90
4509;DHT22;2267;48.816;9.230;2024-03-02T10:08:55;11.60;99.90
4509;DHT22;2267;48.816;9.230;2024-03-02T10:14:09;11.80;99.90
4509;DHT22;2267;48.816;9.230;2024-03-02T10:16:42;12.00;99.90
4509;DHT22;2267;48.816;9.230;2024-03-02T10:21:41;12.20;99.90
4509;DHT22;2267;48.816;9.230;2024-03-02T10:24:09;12.30;99.90
4509;DHT22;2267;48.816;9.230;2024-03-02T10:26:35;12.50;99.90
4509;DHT22;2267;48.816;9.230;2024-03-02T10:29:03;12.60;99.90
4509;DHT22;2267;48.816;9.230;2024-03-02T10:31:30;12.80;99.90
4509;DHT22;2267;48.816;9.230;2024-03-02T10:34:00;13.00;99.90
4509;DHT22;2267;48.816;9.230;2024-03-02T10:36:28;13.00;99.90
4509;DHT22;2267;48.816;9.230;2024-03-02T10:38:58;13.20;99.90
4509;DHT22;2267;48.816;9.230;2024-03-02T10:41:29;13.30;99.90
4509;DHT22;2267;48.816;9.230;2024-03-02T10:43:59;13.40;99.90
4509;DHT22;2267;48.816;9.230;2024-03-02T10:46:31;13.70;99.90
4509;DHT22;2267;48.816;9.230;2024-03-02T10:49:00;13.80;99.90
4509;DHT22;2267;48.816;9.230;2024-03-02T10:51:31;13.90;99.90
4509;DHT22;2267;48.816;9.230;2024-03-02T10:53:59;14.20;99.90
4509;DHT22;2267;48.816;9.230;2024-03-02T10:56:29;14.40;99.90
4509;DHT22;2267;48.816;9.230;2024-03-02T11:01:56;14.60;99.90
4509;DHT22;2267;48.816;9.230;2024-03-02T11:04:31;14.70;99.90
4509;DHT22;2267;48.816;9.230;2024-03-02T11:07:09;14.70;99.70
4509;DHT22;2267;48.816;9.230;2024-03-02T11:09:40;14.80;99.70
4509;DHT22;2267;48.816;9.230;2024-03-02T11:12:24;14.90;99.80
4509;DHT22;2267;48.816;9.230;2024-03-02T11:14:55;15.10;99.40
4509;DHT22;2267;48.816;9.230;2024-03-02T11:17:23;15.20;98.90
4509;DHT22;2267;48.816;9.230;2024-03-02T11:19:50;15.30;98.70
4509;DHT22;2267;48.816;9.230;2024-03-02T11:22:18;15.40;98.50
4509;DHT22;2267;48.816;9.230;2024-03-02T11:24:52;15.60;98.60
4509;DHT22;2267;48.816;9.230;2024-03-02T11:33:06;16.00;97.60
4509;DHT22;2267;48.816;9.230;2024-03-02T11:35:43;16.20;97.40
4509;DHT22;2267;48.816;9.230;2024-03-02T11:38:13;16.40;96.80
4509;DHT22;2267;48.816;9.230;2024-03-02T11:40:40;16.50;96.90
4509;DHT22;2267;48.816;9.230;2024-03-02T11:43:08;16.70;96.90
4509;DHT22;2267;48.816;9.230;2024-03-02T11:45:36;16.80;96.90
4509;DHT22;2267;48.816;9.230;2024-03-02T11:48:08;16.90;96.60
4509;DHT22;2267;48.816;9.230;2024-03-02T11:50:46;17.20;96.60
4509;DHT22;2267;48.816;9.230;2024-03-02T11:53:13;17.30;95.50
4509;DHT22;2267;48.816;9.230;2024-03-02T11:55:41;17.40;95.10
4509;DHT22;2267;48.816;9.230;2024-03-02T11:58:08;17.60;94.40
4509;DHT22;2267;48.816;9.230;2024-03-02T12:00:35;17.60;93.60
4509;DHT22;2267;48.816;9.230;2024-03-02T12:05:31;17.70;93.30
4509;DHT22;2267;48.816;9.230;2024-03-02T12:08:00;17.70;92.90
4509;DHT22;2267;48.816;9.230;2024-03-02T12:10:27;17.80;93.00
4509;DHT22;2267;48.816;9.230;2024-03-02T12:13:02;17.70;92.10
4509;DHT22;2267;48.816;9.230;2024-03-02T12:15:31;17.70;92.00
4509;DHT22;2267;48.816;9.230;2024-03-02T12:18:00;17.80;91.00
4509;DHT22;2267;48.816;9.230;2024-03-02T12:20:29;17.70;90.70
4509;DHT22;2267;48.816;9.230;2024-03-02T12:22:59;17.70;91.00
4509;DHT22;2267;48.816;9.230;2024-03-02T12:25:26;17.80;90.80
4509;DHT22;2267;48.816;9.230;2024-03-02T12:27:55;17.90;90.60
4509;DHT22;2267;48.816;9.230;2024-03-02T12:30:23;18.00;90.70
4509;DHT22;2267;48.816;9.230;2024-03-02T12:32:50;18.10;91.10
4509;DHT22;2267;48.816;9.230;2024-03-02T12:35:18;18.10;90.10
4509;DHT22;2267;48.816;9.230;2024-03-02T12:37:47;18.20;89.70
4509;DHT22;2267;48.816;9.230;2024-03-02T12:40:16;18.30;89.80
4509;DHT22;2267;48.816;9.230;2024-03-02T12:42:48;18.40;89.10
4509;DHT22;2267;48.816;9.230;2024-03-02T12:45:16;18.60;88.80
4509;DHT22;2267;48.816;9.230;2024-03-02T12:47:43;18.70;88.80
4509;DHT22;2267;48.816;9.230;2024-03-02T12:50:10;18.80;86.30
4509;DHT22;2267;48.816;9.230;2024-03-02T12:52:37;18.90;85.70
4509;DHT22;2267;48.816;9.230;2024-03-02T12:55:07;19.00;85.00
4509;DHT22;2267;48.816;9.230;2024-03-02T12:57:34;19.10;83.90
4509;DHT22;2267;48.816;9.230;2024-03-02T13:00:06;19.20;83.60
4509;DHT22;2267;48.816;9.230;2024-03-02T13:02:36;19.30;81.70
4509;DHT22;2267;48.816;9.230;2024-03-02T13:05:03;19.30;84.00
4509;DHT22;2267;48.816;9.230;2024-03-02T13:07:32;19.50;87.40
4509;DHT22;2267;48.816;9.230;2024-03-02T13:10:00;19.70;87.30
4509;DHT22;2267;48.816;9.230;2024-03-02T13:12:27;19.80;84.50
4509;DHT22;2267;48.816;9.230;2024-03-02T13:14:54;19.90;85.00
4509;DHT22;2267;48.816;9.230;2024-03-02T13:17:22;20.10;84.40
4509;DHT22;2267;48.816;9.230;2024-03-02T13:19:59;20.20;83.90
4509;DHT22;2267;48.816;9.230;2024-03-02T13:22:26;20.10;79.20
4509;DHT22;2267;48.816;9.230;2024-03-02T13:24:53;20.20;82.30
4509;DHT22;2267;48.816;9.230;2024-03-02T13:27:21;20.30;84.10
4509;DHT22;2267;48.816;9.230;2024-03-02T13:29:48;20.50;83.00
4509;DHT22;2267;48.816;9.230;2024-03-02T13:32:16;20.60;81.00
4509;DHT22;2267;48.816;9.230;2024-03-02T13:34:43;20.60;80.00
4509;DHT22;2267;48.816;9.230;2024-03-02T13:37:10;20.70;80.00
4509;DHT22;2267;48.816;9.230;2024-03-02T13:39:37;20.70;78.10
4509;DHT22;2267;48.816;9.230;2024-03-02T13:42:11;20.60;78.00
4509;DHT22;2267;48.816;9.230;2024-03-02T13:44:40;20.70;78.50
4509;DHT22;2267;48.816;9.230;2024-03-02T13:47:08;20.70;78.90
4509;DHT22;2267;48.816;9.230;2024-03-02T13:49:35;20.70;76.50
4509;DHT22;2267;48.816;9.230;2024-03-02T13:52:08;20.70;75.80
4509;DHT22;2267;48.816;9.230;2024-03-02T13:54:41;20.50;74.30
4509;DHT22;2267;48.816;9.230;2024-03-02T13:57:09;20.30;75.20
4509;DHT22;2267;48.816;9.230;2024-03-02T13:59:37;20.20;74.20
4509;DHT22;2267;48.816;9.230;2024-03-02T14:02:05;20.10;74.40
4509;DHT22;2267;48.816;9.230;2024-03-02T14:04:34;20.10;74.60
4509;DHT22;2267;48.816;9.230;2024-03-02T14:07:01;20.20;75.00
4509;DHT22;2267;48.816;9.230;2024-03-02T14:09:29;20.30;75.20
4509;DHT22;2267;48.816;9.230;2024-03-02T14:11:56;20.30;74.40
4509;DHT22;2267;48.816;9.230;2024-03-02T14:14:23;20.30;74.90
4509;DHT22;2267;48.816;9.230;2024-03-02T14:16:51;20.30;74.90
4509;DHT22;2267;48.816;9.230;2024-03-02T14:19:18;20.40;74.50
4509;DHT22;2267;48.816;9.230;2024-03-02T14:21:45;20.30;73.40
4509;DHT22;2267;48.816;9.230;2024-03-02T14:24:12;20.20;72.60
4509;DHT22;2267;48.816;9.230;2024-03-02T14:26:41;20.10;74.00
4509;DHT22;2267;48.816;9.230;2024-03-02T14:29:08;20.10;73.90
4509;DHT22;2267;48.816;9.230;2024-03-02T14:31:35;20.00;73.60
4509;DHT22;2267;48.816;9.230;2024-03-02T14:34:02;19.90;73.60
4509;DHT22;2267;48.816;9.230;2024-03-02T14:36:29;19.80;73.80
4509;DHT22;2267;48.816;9.230;2024-03-02T14:38:57;19.70;74.00
4509;DHT22;2267;48.816;9.230;2024-03-02T14:41:24;19.60;74.70
4509;DHT22;2267;48.816;9.230;2024-03-02T14:43:51;19.50;74.80
4509;DHT22;2267;48.816;9.230;2024-03-02T14:46:19;19.40;74.30
4509;DHT22;2267;48.816;9.230;2024-03-02T14:48:46;19.20;72.90
4509;DHT22;2267;48.816;9.230;2024-03-02T14:51:14;19.00;72.80
4509;DHT22;2267;48.816;9.230;2024-03-02T14:53:41;18.80;72.90
4509;DHT22;2267;48.816;9.230;2024-03-02T14:56:08;18.60;73.00
4509;DHT22;2267;48.816;9.230;2024-03-02T14:58:35;18.40;71.60
4509;DHT22;2267;48.816;9.230;2024-03-02T15:01:04;18.20;73.10
4509;DHT22;2267;48.816;9.230;2024-03-02T15:03:32;18.20;72.50
4509;DHT22;2267;48.816;9.230;2024-03-02T15:06:01;18.00;72.60
4509;DHT22;2267;48.816;9.230;2024-03-02T15:08:28;17.90;71.90
4509;DHT22;2267;48.816;9.230;2024-03-02T15:10:55;17.80;72.30
4509;DHT22;2267;48.816;9.230;2024-03-02T15:13:23;17.70;73.20
4509;DHT22;2267;48.816;9.230;2024-03-02T15:15:50;17.70;73.80
4509;DHT22;2267;48.816;9.230;2024-03-02T15:18:17;17.60;73.50
4509;DHT22;2267;48.816;9.230;2024-03-02T15:20:44;17.50;73.80
4509;DHT22;2267;48.816;9.230;2024-03-02T15:23:11;17.40;73.90
4509;DHT22;2267;48.816;9.230;2024-03-02T15:25:38;17.30;73.20
4509;DHT22;2267;48.816;9.230;2024-03-02T15:28:05;17.20;74.00
4509;DHT22;2267;48.816;9.230;2024-03-02T15:30:32;17.10;74.10
4509;DHT22;2267;48.816;9.230;2024-03-02T15:32:59;17.00;73.80
4509;DHT22;2267;48.816;9.230;2024-03-02T15:35:26;16.90;73.90
4509;DHT22;2267;48.816;9.230;2024-03-02T15:37:54;16.80;74.20
4509;DHT22;2267;48.816;9.230;2024-03-02T15:40:21;16.80;75.20
4509;DHT22;2267;48.816;9.230;2024-03-02T15:42:48;16.70;74.50
4509;DHT22;2267;48.816;9.230;2024-03-02T15:45:15;16.70;75.00
4509;DHT22;2267;48.816;9.230;2024-03-02T15:47:41;16.60;74.70
4509;DHT22;2267;48.816;9.230;2024-03-02T15:50:09;16.60;75.00
4509;DHT22;2267;48.816;9.230;2024-03-02T15:52:36;16.50;75.60
4509;DHT22;2267;48.816;9.230;2024-03-02T15:55:03;16.50;76.50
4509;DHT22;2267;48.816;9.230;2024-03-02T15:57:33;16.40;77.40
4509;DHT22;2267;48.816;9.230;2024-03-02T16:00:00;16.30;78.30
4509;DHT22;2267;48.816;9.230;2024-03-02T16:02:27;16.30;78.80
4509;DHT22;2267;48.816;9.230;2024-03-02T16:04:54;16.30;79.40
4509;DHT22;2267;48.816;9.230;2024-03-02T16:07:21;16.20;79.80
4509;DHT22;2267;48.816;9.230;2024-03-02T16:09:48;16.20;80.00
4509;DHT22;2267;48.816;9.230;2024-03-02T16:12:15;16.10;80.60
4509;DHT22;2267;48.816;9.230;2024-03-02T16:14:42;16.00;81.10
4509;DHT22;2267;48.816;9.230;2024-03-02T16:17:09;16.00;81.60
4509;DHT22;2267;48.816;9.230;2024-03-02T16:19:36;15.90;81.90
4509;DHT22;2267;48.816;9.230;2024-03-02T16:22:07;15.90;82.50
4509;DHT22;2267;48.816;9.230;2024-03-02T16:24:38;15.90;83.10
4509;DHT22;2267;48.816;9.230;2024-03-02T16:27:04;15.80;84.30
4509;DHT22;2267;48.816;9.230;2024-03-02T16:29:31;15.70;83.90
4509;DHT22;2267;48.816;9.230;2024-03-02T16:31:59;15.70;84.30
4509;DHT22;2267;48.816;9.230;2024-03-02T16:34:27;15.70;84.80
4509;DHT22;2267;48.816;9.230;2024-03-02T16:36:54;15.70;85.30
4509;DHT22;2267;48.816;9.230;2024-03-02T16:39:22;15.60;85.90